sensor_id;sensor_type;location;lat;lon;timestamp;pressure;altitude;pressure_sealevel;temperature;humidity
3844;BME280;1937;51.444;6.484;2023-12-20T00:01:44;123952.75;;;7.55;100.00
3844;BME280;1937;51.444;6.484;2023-12-20T00:04:11;124271.13;;;7.48;100.00
3844;BME280;1937;51.444;6.484;2023-12-20T00:06:38;124930.09;;;7.44;100.00
3844;BME280;1937;51.444;6.484;2023-12-20T00:09:05;125271.91;;;7.48;100.00
3844;BME280;1937;51.444;6.484;2023-12-20T00:11:31;124949.34;;;7.53;100.00
3844;BME280;1937;51.444;6.484;2023-12-20T00:13:59;125284.78;;;7.54;100.00
3844;BME280;1937;51.444;6.484;2023-12-20T00:16:26;124994.22;;;7.74;100.00
3844;BME280;1937;51.444;6.484;2023-12-20T00:18:52;124649.09;;;7.69;100.00
3844;BME280;1937;51.444;6.484;2023-12-20T00:21:19;124983.53;;;7.69;100.00
3844;BME280;1937;51.444;6.484;2023-12-20T00:23:46;124963.25;;;7.60;100.00
3844;BME280;1937;51.444;6.484;2023-12-20T00:26:12;125309.41;;;7.66;100.00
3844;BME280;1937;51.444;6.484;2023-12-20T00:28:39;125303.00;;;7.63;100.00
3844;BME280;1937;51.444;6.484;2023-12-20T00:31:09;124987.81;;;7.71;100.00
3844;BME280;1937;51.444;6.484;2023-12-20T00:33:36;125687.97;;;7.87;100.00
3844;BME280;1937;51.444;6.484;2023-12-20T00:36:03;125358.75;;;7.89;100.00
3844;BME280;1937;51.444;6.484;2023-12-20T00:38:30;125366.22;;;7.93;100.00
3844;BME280;1937;51.444;6.484;2023-12-20T00:40:57;124350.84;;;7.86;100.00
3844;BME280;1937;51.444;6.484;2023-12-20T00:43:24;124003.66;;;7.79;100.00
3844;BME280;1937;51.444;6.484;2023-12-20T00:45:52;123979.25;;;7.67;100.00
3844;BME280;1937;51.444;6.484;2023-12-20T00:48:20;123629.09;;;7.59;100.00
3844;BME280;1937;51.444;6.484;2023-12-20T00:50:46;124643.75;;;7.66;100.00
3844;BME280;1937;51.444;6.484;2023-12-20T00:53:13;124297.66;;;7.60;100.00
3844;BME280;1937;51.444;6.484;2023-12-20T00:55:39;124651.22;;;7.70;100.00
3844;BME280;1937;51.444;6.484;2023-12-20T00:58:06;123629.09;;;7.59;100.00
3844;BME280;1937;51.444;6.484;2023-12-20T01:00:33;123298.00;;;7.60;100.00
3844;BME280;1937;51.444;6.484;2023-12-20T01:02:59;122944.88;;;7.51;100.00
3844;BME280;1937;51.444;6.484;2023-12-20T01:05:28;122629.63;;;7.59;100.00
3844;BME280;1937;51.444;6.484;2023-12-20T01:07:54;123311.72;;;7.67;100.00
3844;BME280;1937;51.444;6.484;2023-12-20T01:10:21;122630.69;;;7.60;100.00
3844;BME280;1937;51.444;6.484;2023-12-20T01:12:48;122614.94;;;7.52;100.00
3844;BME280;1937;51.444;6.484;2023-12-20T01:15:15;121221.72;;;7.22;100.00
3844;BME280;1937;51.444;6.484;2023-12-20T01:17:42;120906.53;;;7.31;100.00
3844;BME280;1937;51.444;6.484;2023-12-20T01:20:09;119524.47;;;7.06;100.00
3844;BME280;1937;51.444;6.484;2023-12-20T01:22:37;119848.78;;;7.02;100.00
3844;BME280;1937;51.444;6.484;2023-12-20T01:25:04;119869.34;;;7.12;100.00
3844;BME280;1937;51.444;6.484;2023-12-20T01:27:32;118869.66;;;7.11;100.00
3844;BME280;1937;51.444;6.484;2023-12-20T01:29:58;117812.81;;;6.81;100.00
3844;BME280;1937;51.444;6.484;2023-12-20T01:32:25;118855.41;;;7.04;100.00
3844;BME280;1937;51.444;6.484;2023-12-20T01:34:51;117842.03;;;6.95;100.00
3844;BME280;1937;51.444;6.484;2023-12-20T01:37:18;116822.25;;;6.84;100.00
3844;BME280;1937;51.444;6.484;2023-12-20T01:39:46;116461.22;;;6.69;100.00
3844;BME280;1937;51.444;6.484;2023-12-20T01:42:13;116107.31;;;6.58;100.00
3844;BME280;1937;51.444;6.484;2023-12-20T01:44:39;116802.25;;;6.74;100.00
3844;BME280;1937;51.444;6.484;2023-12-20T01:47:06;117104.31;;;6.58;100.00
3844;BME280;1937;51.444;6.484;2023-12-20T01:49:33;117079.25;;;6.46;100.00
3844;BME280;1937;51.444;6.484;2023-12-20T01:51:59;117089.25;;;6.51;100.00
3844;BME280;1937;51.444;6.484;2023-12-20T01:54:26;117107.28;;;6.60;100.00
3844;BME280;1937;51.444;6.484;2023-12-20T01:56:55;117103.31;;;6.58;100.00
3844;BME280;1937;51.444;6.484;2023-12-20T01:59:21;116379.47;;;6.28;100.00
3844;BME280;1937;51.444;6.484;2023-12-20T02:01:48;117377.06;;;6.29;100.00
3844;BME280;1937;51.444;6.484;2023-12-20T02:04:17;117352.94;;;6.16;100.00
3844;BME280;1937;51.444;6.484;2023-12-20T02:06:46;117707.97;;;6.28;100.00
3844;BME280;1937;51.444;6.484;2023-12-20T02:09:12;117363.00;;;6.22;100.00
3844;BME280;1937;51.444;6.484;2023-12-20T02:11:39;117354.97;;;6.18;100.00
3844;BME280;1937;51.444;6.484;2023-12-20T02:14:07;116981.03;;;5.96;100.00
3844;BME280;1937;51.444;6.484;2023-12-20T02:16:34;116992.03;;;6.02;100.00
3844;BME280;1937;51.444;6.484;2023-12-20T02:19:01;116653.34;;;5.98;100.00
3844;BME280;1937;51.444;6.484;2023-12-20T02:21:33;116318.69;;;5.97;100.00
3844;BME280;1937;51.444;6.484;2023-12-20T02:24:00;116272.81;;;5.73;100.00
3844;BME280;1937;51.444;6.484;2023-12-20T02:26:26;117313.75;;;5.97;100.00
3844;BME280;1937;51.444;6.484;2023-12-20T02:28:53;116640.34;;;5.92;100.00
3844;BME280;1937;51.444;6.484;2023-12-20T02:31:21;115959.25;;;5.83;100.00
3844;BME280;1937;51.444;6.484;2023-12-20T02:33:47;116273.81;;;5.74;100.00
3844;BME280;1937;51.444;6.484;2023-12-20T02:36:14;116286.78;;;5.81;100.00
3844;BME280;1937;51.444;6.484;2023-12-20T02:38:42;115950.28;;;5.78;100.00
3844;BME280;1937;51.444;6.484;2023-12-20T02:41:10;116299.78;;;5.87;100.00
3844;BME280;1937;51.444;6.484;2023-12-20T02:43:37;116263.88;;;5.69;100.00
3844;BME280;1937;51.444;6.484;2023-12-20T02:46:03;116960.94;;;5.86;100.00
3844;BME280;1937;51.444;6.484;2023-12-20T02:48:30;116981.03;;;5.96;100.00
3844;BME280;1937;51.444;6.484;2023-12-20T02:50:56;117304.72;;;5.92;100.00
3844;BME280;1937;51.444;6.484;2023-12-20T02:53:23;118348.59;;;6.16;100.00
3844;BME280;1937;51.444;6.484;2023-12-20T02:55:51;119004.41;;;6.12;100.00
3844;BME280;1937;51.444;6.484;2023-12-20T02:58:18;119681.69;;;6.19;100.00
3844;BME280;1937;51.444;6.484;2023-12-20T03:00:45;119354.78;;;6.22;100.00
3844;BME280;1937;51.444;6.484;2023-12-20T03:03:11;119022.72;;;6.22;100.00
3844;BME280;1937;51.444;6.484;2023-12-20T03:05:38;119049.22;;;6.35;100.00
3844;BME280;1937;51.444;6.484;2023-12-20T03:08:05;118042.97;;;6.30;100.00
3844;BME280;1937;51.444;6.484;2023-12-20T03:10:32;117383.06;;;6.32;100.00
3844;BME280;1937;51.444;6.484;2023-12-20T03:13:00;117377.06;;;6.29;100.00
3844;BME280;1937;51.444;6.484;2023-12-20T03:15:26;117730.16;;;6.39;100.00
3844;BME280;1937;51.444;6.484;2023-12-20T03:17:53;116734.28;;;6.39;100.00
3844;BME280;1937;51.444;6.484;2023-12-20T03:20:19;116076.50;;;6.42;100.00
3844;BME280;1937;51.444;6.484;2023-12-20T03:22:46;115393.06;;;6.32;100.00
3844;BME280;1937;51.444;6.484;2023-12-20T03:25:13;114695.28;;;6.14;100.00
3844;BME280;1937;51.444;6.484;2023-12-20T03:27:40;114022.41;;;6.09;100.00
3844;BME280;1937;51.444;6.484;2023-12-20T03:30:08;112667.78;;;5.94;100.00
3844;BME280;1937;51.444;6.484;2023-12-20T03:32:36;113338.16;;;5.98;100.00
3844;BME280;1937;51.444;6.484;2023-12-20T03:35:03;114375.47;;;6.21;100.00
3844;BME280;1937;51.444;6.484;2023-12-20T03:37:30;114035.13;;;6.16;100.00
3844;BME280;1937;51.444;6.484;2023-12-20T03:39:57;113700.69;;;6.14;100.00
3844;BME280;1937;51.444;6.484;2023-12-20T03:42:24;113000.03;;;5.95;100.00
3844;BME280;1937;51.444;6.484;2023-12-20T03:44:50;113010.69;;;6.00;100.00
3844;BME280;1937;51.444;6.484;2023-12-20T03:47:18;112994.22;;;5.92;100.00
3844;BME280;1937;51.444;6.484;2023-12-20T03:49:45;111980.28;;;5.81;100.00
3844;BME280;1937;51.444;6.484;2023-12-20T03:52:11;112320.09;;;5.86;100.00
3844;BME280;1937;51.444;6.484;2023-12-20T03:54:38;111978.34;;;5.80;100.00
3844;BME280;1937;51.444;6.484;2023-12-20T03:57:04;112294.09;;;5.72;100.00
3844;BME280;1937;51.444;6.484;2023-12-20T03:59:34;112642.63;;;5.81;100.00
3844;BME280;1937;51.444;6.484;2023-12-20T04:02:01;112271.00;;;5.60;100.00
3844;BME280;1937;51.444;6.484;2023-12-20T04:04:29;112623.34;;;5.71;100.00
3844;BME280;1937;51.444;6.484;2023-12-20T04:06:56;112274.88;;;5.62;100.00
3844;BME280;1937;51.444;6.484;2023-12-20T04:09:23;112263.31;;;5.56;100.00
3844;BME280;1937;51.444;6.484;2023-12-20T04:11:49;112625.25;;;5.72;100.00
3844;BME280;1937;51.444;6.484;2023-12-20T04:14:16;113274.03;;;5.65;100.00
3844;BME280;1937;51.444;6.484;2023-12-20T04:16:43;112595.34;;;5.56;100.00
3844;BME280;1937;51.444;6.484;2023-12-20T04:19:09;112608.84;;;5.63;100.00
3844;BME280;1937;51.444;6.484;2023-12-20T04:21:38;112259.47;;;5.54;100.00
3844;BME280;1937;51.444;6.484;2023-12-20T04:24:05;112248.88;;;5.48;100.00
3844;BME280;1937;51.444;6.484;2023-12-20T04:26:32;111572.63;;;5.41;100.00
3844;BME280;1937;51.444;6.484;2023-12-20T04:28:59;112922.53;;;5.54;100.00
3844;BME280;1937;51.444;6.484;2023-12-20T04:31:25;113958.91;;;5.76;100.00
3844;BME280;1937;51.444;6.484;2023-12-20T04:33:52;113942.31;;;5.68;100.00
3844;BME280;1937;51.444;6.484;2023-12-20T04:36:18;114630.41;;;5.81;100.00
3844;BME280;1937;51.444;6.484;2023-12-20T04:38:46;114296.09;;;5.80;100.00
3844;BME280;1937;51.444;6.484;2023-12-20T04:41:13;112947.69;;;5.67;100.00
3844;BME280;1937;51.444;6.484;2023-12-20T04:43:42;111976.44;;;5.79;100.00
3844;BME280;1937;51.444;6.484;2023-12-20T04:46:09;110618.03;;;5.61;100.00
3844;BME280;1937;51.444;6.484;2023-12-20T04:48:36;110962.25;;;5.68;100.00
3844;BME280;1937;51.444;6.484;2023-12-20T04:51:03;110274.84;;;5.54;100.00
3844;BME280;1937;51.444;6.484;2023-12-20T04:53:31;110277.69;;;5.56;100.00
3844;BME280;1937;51.444;6.484;2023-12-20T04:55:59;110923.28;;;5.47;100.00
3844;BME280;1937;51.444;6.484;2023-12-20T04:58:25;111595.59;;;5.53;100.00
3844;BME280;1937;51.444;6.484;2023-12-20T05:00:52;112279.69;;;5.64;100.00
3844;BME280;1937;51.444;6.484;2023-12-20T05:03:19;113297.34;;;5.77;100.00
3844;BME280;1937;51.444;6.484;2023-12-20T05:05:45;113984.31;;;5.90;100.00
3844;BME280;1937;51.444;6.484;2023-12-20T05:08:12;113342.97;;;6.01;100.00
3844;BME280;1937;51.444;6.484;2023-12-20T05:10:39;112696.72;;;6.09;100.00
3844;BME280;1937;51.444;6.484;2023-12-20T05:13:07;112704.44;;;6.13;100.00
3844;BME280;1937;51.444;6.484;2023-12-20T05:15:34;112019.66;;;6.02;100.00
3844;BME280;1937;51.444;6.484;2023-12-20T05:18:01;112693.81;;;6.08;100.00
3844;BME280;1937;51.444;6.484;2023-12-20T05:20:27;113373.09;;;6.16;100.00
3844;BME280;1937;51.444;6.484;2023-12-20T05:22:54;112724.72;;;6.24;100.00
3844;BME280;1937;51.444;6.484;2023-12-20T05:25:20;111415.41;;;6.33;100.00
3844;BME280;1937;51.444;6.484;2023-12-20T05:27:47;109745.78;;;6.26;100.00
3844;BME280;1937;51.444;6.484;2023-12-20T05:30:16;109427.78;;;6.33;100.00
3844;BME280;1937;51.444;6.484;2023-12-20T05:32:42;108774.78;;;6.38;100.00
3844;BME280;1937;51.444;6.484;2023-12-20T05:35:09;108094.97;;;6.28;100.00
3844;BME280;1937;51.444;6.484;2023-12-20T05:37:35;109083.50;;;6.26;100.00
3844;BME280;1937;51.444;6.484;2023-12-20T05:40:03;109112.50;;;6.41;100.00
3844;BME280;1937;51.444;6.484;2023-12-20T05:42:29;108785.97;;;6.44;100.00
3844;BME280;1937;51.444;6.484;2023-12-20T05:44:56;107762.13;;;6.27;100.00
3844;BME280;1937;51.444;6.484;2023-12-20T05:47:24;107757.47;;;6.25;100.00
3844;BME280;1937;51.444;6.484;2023-12-20T05:49:51;107760.25;;;6.26;100.00
3844;BME280;1937;51.444;6.484;2023-12-20T05:52:17;108440.88;;;6.36;100.00
3844;BME280;1937;51.444;6.484;2023-12-20T05:54:44;107479.03;;;6.53;100.00
3844;BME280;1937;51.444;6.484;2023-12-20T05:57:09;107483.63;;;6.56;100.00
3844;BME280;1937;51.444;6.484;2023-12-20T05:59:36;106835.16;;;6.64;100.00
3844;BME280;1937;51.444;6.484;2023-12-20T06:02:04;105830.22;;;6.57;100.00
3844;BME280;1937;51.444;6.484;2023-12-20T06:04:32;105503.81;;;6.60;100.00
3844;BME280;1937;51.444;6.484;2023-12-20T06:06:59;105532.72;;;6.76;100.00
3844;BME280;1937;51.444;6.484;2023-12-20T06:09:27;103554.13;;;6.80;100.00
3844;BME280;1937;51.444;6.484;2023-12-20T06:11:53;102229.13;;;6.79;100.00
3844;BME280;1937;51.444;6.484;2023-12-20T06:14:20;101215.34;;;6.66;100.00
3844;BME280;1937;51.444;6.484;2023-12-20T06:16:46;101560.75;;;6.75;100.00
3844;BME280;1937;51.444;6.484;2023-12-20T06:19:13;100582.72;;;6.83;100.00
3844;BME280;1937;51.444;6.484;2023-12-20T06:21:41;98239.72;;;6.65;100.00
3844;BME280;1937;51.444;6.484;2023-12-20T06:24:08;98924.97;;;6.80;100.00
3844;BME280;1937;51.444;6.484;2023-12-20T06:26:35;98275.94;;;6.87;100.00
3844;BME280;1937;51.444;6.484;2023-12-20T06:29:01;97365.38;;;6.93;100.00
3844;BME280;1937;51.444;6.484;2023-12-20T06:31:28;95737.56;;;6.89;100.00
3844;BME280;1937;51.444;6.484;2023-12-20T06:33:55;95553.34;;;6.91;100.00
3844;BME280;1937;51.444;6.484;2023-12-20T06:36:25;95368.59;;;6.79;100.00
3844;BME280;1937;51.444;6.484;2023-12-20T06:38:53;94352.91;;;6.86;100.00
3844;BME280;1937;51.444;6.484;2023-12-20T06:41:20;93523.56;;;6.86;100.00
3844;BME280;1937;51.444;6.484;2023-12-20T06:43:47;92260.47;;;6.88;100.00
3844;BME280;1937;51.444;6.484;2023-12-20T06:46:13;92572.47;;;6.80;100.00
3844;BME280;1937;51.444;6.484;2023-12-20T06:48:40;91966.25;;;6.97;100.00
3844;BME280;1937;51.444;6.484;2023-12-20T06:51:10;90726.44;;;7.01;99.91
3844;BME280;1937;51.444;6.484;2023-12-20T06:53:37;89942.56;;;6.95;99.64
3844;BME280;1937;51.444;6.484;2023-12-20T06:56:06;89093.38;;;6.87;99.07
3844;BME280;1937;51.444;6.484;2023-12-20T06:58:34;89704.06;;;6.94;99.80
3844;BME280;1937;51.444;6.484;2023-12-20T07:01:02;89348.84;;;7.03;98.88
3844;BME280;1937;51.444;6.484;2023-12-20T07:03:29;88452.28;;;7.01;98.90
3844;BME280;1937;51.444;6.484;2023-12-20T07:05:56;88090.50;;;6.94;98.76
3844;BME280;1937;51.444;6.484;2023-12-20T07:08:23;87962.88;;;6.85;99.03
3844;BME280;1937;51.444;6.484;2023-12-20T07:10:49;88958.53;;;6.83;100.00
3844;BME280;1937;51.444;6.484;2023-12-20T07:13:17;89278.03;;;6.81;100.00
3844;BME280;1937;51.444;6.484;2023-12-20T07:15:44;89734.22;;;6.88;100.00
3844;BME280;1937;51.444;6.484;2023-12-20T07:18:11;88966.81;;;6.80;100.00
3844;BME280;1937;51.444;6.484;2023-12-20T07:20:38;89173.72;;;6.84;100.00
3844;BME280;1937;51.444;6.484;2023-12-20T07:23:04;89557.50;;;6.97;100.00
3844;BME280;1937;51.444;6.484;2023-12-20T07:25:31;88636.47;;;6.84;99.68
3844;BME280;1937;51.444;6.484;2023-12-20T07:27:58;88467.63;;;7.06;99.47
3844;BME280;1937;51.444;6.484;2023-12-20T07:30:26;87074.41;;;7.00;99.09
3844;BME280;1937;51.444;6.484;2023-12-20T07:32:53;85942.19;;;6.96;97.83
3844;BME280;1937;51.444;6.484;2023-12-20T07:35:20;86209.41;;;6.98;99.07
3844;BME280;1937;51.444;6.484;2023-12-20T07:37:46;85604.47;;;6.99;98.22
3844;BME280;1937;51.444;6.484;2023-12-20T07:40:13;85346.44;;;7.17;97.11
3844;BME280;1937;51.444;6.484;2023-12-20T07:42:42;84513.94;;;6.99;97.47
3844;BME280;1937;51.444;6.484;2023-12-20T07:45:09;84760.19;;;7.19;97.80
3844;BME280;1937;51.444;6.484;2023-12-20T07:47:38;83467.78;;;7.11;96.89
3844;BME280;1937;51.444;6.484;2023-12-20T07:50:04;83399.84;;;7.21;96.99
3844;BME280;1937;51.444;6.484;2023-12-20T07:52:32;82793.91;;;7.09;96.47
3844;BME280;1937;51.444;6.484;2023-12-20T07:54:58;83376.94;;;7.14;96.83
3844;BME280;1937;51.444;6.484;2023-12-20T07:57:28;82861.03;;;7.02;97.58
3844;BME280;1937;51.444;6.484;2023-12-20T07:59:55;82991.28;;;6.95;97.95
3844;BME280;1937;51.444;6.484;2023-12-20T08:02:21;82743.25;;;7.00;97.56
3844;BME280;1937;51.444;6.484;2023-12-20T08:04:49;83279.78;;;6.99;98.11
3844;BME280;1937;51.444;6.484;2023-12-20T08:07:17;82505.00;;;6.91;97.42
3844;BME280;1937;51.444;6.484;2023-12-20T08:09:44;82509.63;;;6.87;97.43
3844;BME280;1937;51.444;6.484;2023-12-20T08:12:12;82453.59;;;6.91;97.36
3844;BME280;1937;51.444;6.484;2023-12-20T08:14:39;82284.34;;;6.99;96.88
3844;BME280;1937;51.444;6.484;2023-12-20T08:17:06;82460.34;;;6.89;98.04
3844;BME280;1937;51.444;6.484;2023-12-20T08:19:32;82048.00;;;6.84;96.89
3844;BME280;1937;51.444;6.484;2023-12-20T08:22:00;82140.09;;;6.91;97.12
3844;BME280;1937;51.444;6.484;2023-12-20T08:24:27;82673.19;;;6.90;98.31
3844;BME280;1937;51.444;6.484;2023-12-20T08:26:54;82402.56;;;6.99;97.06
3844;BME280;1937;51.444;6.484;2023-12-20T08:29:21;81527.69;;;6.94;96.74
3844;BME280;1937;51.444;6.484;2023-12-20T08:31:52;81873.72;;;7.14;96.01
3844;BME280;1937;51.444;6.484;2023-12-20T08:34:18;80890.75;;;7.02;96.55
3844;BME280;1937;51.444;6.484;2023-12-20T08:36:45;80930.16;;;7.10;96.25
3844;BME280;1937;51.444;6.484;2023-12-20T08:39:13;80392.69;;;7.12;95.79
3844;BME280;1937;51.444;6.484;2023-12-20T08:41:40;80876.41;;;7.12;96.95
3844;BME280;1937;51.444;6.484;2023-12-20T08:44:07;80268.19;;;7.13;95.90
3844;BME280;1937;51.444;6.484;2023-12-20T08:46:35;80655.53;;;7.07;96.30
3844;BME280;1937;51.444;6.484;2023-12-20T08:49:02;81002.47;;;6.90;97.27
3844;BME280;1937;51.444;6.484;2023-12-20T08:51:29;80486.63;;;7.07;96.11
3844;BME280;1937;51.444;6.484;2023-12-20T08:53:57;80643.78;;;7.11;95.93
3844;BME280;1937;51.444;6.484;2023-12-20T08:56:25;80406.31;;;7.20;95.17
3844;BME280;1937;51.444;6.484;2023-12-20T08:58:52;79826.03;;;7.16;95.98
3844;BME280;1937;51.444;6.484;2023-12-20T09:01:19;79966.47;;;7.21;96.01
3844;BME280;1937;51.444;6.484;2023-12-20T09:03:48;79760.41;;;7.15;96.24
3844;BME280;1937;51.444;6.484;2023-12-20T09:06:16;79963.56;;;7.17;96.30
3844;BME280;1937;51.444;6.484;2023-12-20T09:08:43;79729.09;;;7.32;95.12
3844;BME280;1937;51.444;6.484;2023-12-20T09:11:10;79617.94;;;7.39;94.41
3844;BME280;1937;51.444;6.484;2023-12-20T09:13:38;79095.44;;;7.44;94.80
3844;BME280;1937;51.444;6.484;2023-12-20T09:16:05;78811.84;;;7.39;94.37
3844;BME280;1937;51.444;6.484;2023-12-20T09:18:32;78840.78;;;7.13;96.26
3844;BME280;1937;51.444;6.484;2023-12-20T09:20:58;79077.72;;;7.14;96.16
3844;BME280;1937;51.444;6.484;2023-12-20T09:23:25;79418.44;;;7.19;95.90
3844;BME280;1937;51.444;6.484;2023-12-20T09:25:52;79216.19;;;7.44;95.36
3844;BME280;1937;51.444;6.484;2023-12-20T09:28:18;78606.22;;;7.47;94.42
3844;BME280;1937;51.444;6.484;2023-12-20T09:30:47;78183.22;;;7.52;94.18
3844;BME280;1937;51.444;6.484;2023-12-20T09:33:16;78659.44;;;7.27;95.32
3844;BME280;1937;51.444;6.484;2023-12-20T09:35:43;78739.50;;;7.43;95.29
3844;BME280;1937;51.444;6.484;2023-12-20T09:38:09;78556.44;;;7.23;95.38
3844;BME280;1937;51.444;6.484;2023-12-20T09:40:41;78751.84;;;7.54;94.96
3844;BME280;1937;51.444;6.484;2023-12-20T09:43:11;78475.72;;;7.46;94.85
3844;BME280;1937;51.444;6.484;2023-12-20T09:45:40;78352.88;;;7.63;94.03
3844;BME280;1937;51.444;6.484;2023-12-20T09:48:10;77944.53;;;7.56;94.16
3844;BME280;1937;51.444;6.484;2023-12-20T09:50:37;77770.16;;;7.62;93.49
3844;BME280;1937;51.444;6.484;2023-12-20T09:53:08;77611.06;;;7.66;94.23
3844;BME280;1937;51.444;6.484;2023-12-20T09:55:36;77454.38;;;7.79;92.69
3844;BME280;1937;51.444;6.484;2023-12-20T09:58:04;77385.00;;;7.79;93.68
3844;BME280;1937;51.444;6.484;2023-12-20T10:00:32;77287.84;;;7.62;94.29
3844;BME280;1937;51.444;6.484;2023-12-20T10:03:00;77324.84;;;7.85;92.67
3844;BME280;1937;51.444;6.484;2023-12-20T10:05:29;76696.56;;;7.66;92.96
3844;BME280;1937;51.444;6.484;2023-12-20T10:07:57;77010.59;;;7.82;93.39
3844;BME280;1937;51.444;6.484;2023-12-20T10:10:24;76643.34;;;7.68;93.48
3844;BME280;1937;51.444;6.484;2023-12-20T10:13:02;76748.88;;;7.74;93.55
3844;BME280;1937;51.444;6.484;2023-12-20T10:15:29;76753.94;;;7.72;92.84
3844;BME280;1937;51.444;6.484;2023-12-20T10:17:57;76645.81;;;7.84;93.05
3844;BME280;1937;51.444;6.484;2023-12-20T10:20:24;76391.53;;;7.86;91.78
3844;BME280;1937;51.444;6.484;2023-12-20T10:22:55;76485.56;;;7.95;92.23
3844;BME280;1937;51.444;6.484;2023-12-20T10:25:22;76226.78;;;7.98;92.27
3844;BME280;1937;51.444;6.484;2023-12-20T10:27:50;76180.47;;;7.96;91.76
3844;BME280;1937;51.444;6.484;2023-12-20T10:30:17;76080.44;;;7.76;92.67
3844;BME280;1937;51.444;6.484;2023-12-20T10:32:44;76162.69;;;8.04;92.17
3844;BME280;1937;51.444;6.484;2023-12-20T10:35:10;75688.34;;;7.89;92.37
3844;BME280;1937;51.444;6.484;2023-12-20T10:37:37;75957.06;;;8.02;92.39
3844;BME280;1937;51.444;6.484;2023-12-20T10:40:07;75977.97;;;7.88;92.28
3844;BME280;1937;51.444;6.484;2023-12-20T10:42:35;75928.97;;;7.80;92.33
3844;BME280;1937;51.444;6.484;2023-12-20T10:45:03;76047.22;;;7.84;92.80
3844;BME280;1937;51.444;6.484;2023-12-20T10:47:33;76058.72;;;7.81;93.38
3844;BME280;1937;51.444;6.484;2023-12-20T10:50:01;76157.16;;;7.88;93.26
3844;BME280;1937;51.444;6.484;2023-12-20T10:52:29;75847.13;;;7.66;93.52
3844;BME280;1937;51.444;6.484;2023-12-20T10:54:56;76250.03;;;7.56;94.66
3844;BME280;1937;51.444;6.484;2023-12-20T10:57:31;76565.84;;;7.74;94.00
3844;BME280;1937;51.444;6.484;2023-12-20T11:00:10;76877.47;;;7.78;94.14
3844;BME280;1937;51.444;6.484;2023-12-20T11:02:40;76289.97;;;7.83;93.56
3844;BME280;1937;51.444;6.484;2023-12-20T11:05:17;76638.50;;;7.96;94.03
3844;BME280;1937;51.444;6.484;2023-12-20T11:07:48;76453.28;;;8.10;93.20
3844;BME280;1937;51.444;6.484;2023-12-20T11:10:20;76116.28;;;7.98;92.62
3844;BME280;1937;51.444;6.484;2023-12-20T11:12:53;76522.00;;;8.29;92.59
3844;BME280;1937;51.444;6.484;2023-12-20T11:15:23;75848.28;;;8.21;91.99
3844;BME280;1937;51.444;6.484;2023-12-20T11:17:54;76120.69;;;8.45;92.27
3844;BME280;1937;51.444;6.484;2023-12-20T11:20:22;75918.94;;;8.50;91.18
3844;BME280;1937;51.444;6.484;2023-12-20T11:22:53;75364.91;;;8.57;90.31
3844;BME280;1937;51.444;6.484;2023-12-20T11:25:21;75225.34;;;8.48;90.96
3844;BME280;1937;51.444;6.484;2023-12-20T11:28:09;75092.25;;;8.41;90.68
3844;BME280;1937;51.444;6.484;2023-12-20T11:30:45;74759.97;;;8.18;91.76
3844;BME280;1937;51.444;6.484;2023-12-20T11:33:13;75226.97;;;8.19;91.67
3844;BME280;1937;51.444;6.484;2023-12-20T11:35:40;75010.53;;;8.27;90.98
3844;BME280;1937;51.444;6.484;2023-12-20T11:38:08;74950.09;;;8.18;92.26
3844;BME280;1937;51.444;6.484;2023-12-20T11:40:35;74957.84;;;8.24;90.97
3844;BME280;1937;51.444;6.484;2023-12-20T11:43:05;75389.97;;;8.06;93.29
3844;BME280;1937;51.444;6.484;2023-12-20T11:45:48;75692.63;;;8.12;92.88
3844;BME280;1937;51.444;6.484;2023-12-20T11:48:16;75680.81;;;7.99;93.17
3844;BME280;1937;51.444;6.484;2023-12-20T11:50:42;75907.19;;;8.11;93.70
3844;BME280;1937;51.444;6.484;2023-12-20T11:53:10;75831.47;;;8.16;93.51
3844;BME280;1937;51.444;6.484;2023-12-20T11:55:37;75719.59;;;8.13;93.68
3844;BME280;1937;51.444;6.484;2023-12-20T11:58:03;75872.94;;;8.02;94.39
3844;BME280;1937;51.444;6.484;2023-12-20T12:00:32;76125.91;;;7.97;93.98
3844;BME280;1937;51.444;6.484;2023-12-20T12:03:01;76531.81;;;8.15;94.77
3844;BME280;1937;51.444;6.484;2023-12-20T12:05:30;76449.66;;;8.17;94.33
3844;BME280;1937;51.444;6.484;2023-12-20T12:07:58;76112.13;;;8.36;92.73
3844;BME280;1937;51.444;6.484;2023-12-20T12:10:24;76121.19;;;8.39;93.28
3844;BME280;1937;51.444;6.484;2023-12-20T12:12:51;75895.84;;;8.22;93.56
3844;BME280;1937;51.444;6.484;2023-12-20T12:15:18;76121.84;;;8.40;92.64
3844;BME280;1937;51.444;6.484;2023-12-20T12:17:52;75783.00;;;8.34;92.59
3844;BME280;1937;51.444;6.484;2023-12-20T12:20:20;75984.44;;;8.19;93.61
3844;BME280;1937;51.444;6.484;2023-12-20T12:22:57;76539.16;;;8.42;93.50
3844;BME280;1937;51.444;6.484;2023-12-20T12:25:24;76163.22;;;8.24;93.79
3844;BME280;1937;51.444;6.484;2023-12-20T12:27:51;76313.81;;;8.31;93.81
3844;BME280;1937;51.444;6.484;2023-12-20T12:30:17;76022.19;;;8.38;93.39
3844;BME280;1937;51.444;6.484;2023-12-20T12:32:44;75975.59;;;8.26;93.27
3844;BME280;1937;51.444;6.484;2023-12-20T12:35:11;75961.78;;;8.39;92.91
3844;BME280;1937;51.444;6.484;2023-12-20T12:37:40;75918.50;;;8.30;93.15
3844;BME280;1937;51.444;6.484;2023-12-20T12:40:12;76111.06;;;8.45;92.83
3844;BME280;1937;51.444;6.484;2023-12-20T12:42:41;75741.63;;;8.22;93.26
3844;BME280;1937;51.444;6.484;2023-12-20T12:45:09;76216.13;;;8.31;93.38
3844;BME280;1937;51.444;6.484;2023-12-20T12:47:37;76273.59;;;8.18;95.25
3844;BME280;1937;51.444;6.484;2023-12-20T12:50:08;76384.41;;;8.28;94.03
3844;BME280;1937;51.444;6.484;2023-12-20T12:52:35;76473.06;;;8.27;94.53
3844;BME280;1937;51.444;6.484;2023-12-20T12:55:05;76631.50;;;8.16;95.09
3844;BME280;1937;51.444;6.484;2023-12-20T12:57:34;76786.91;;;7.96;95.55
3844;BME280;1937;51.444;6.484;2023-12-20T13:00:00;77355.16;;;8.02;95.99
3844;BME280;1937;51.444;6.484;2023-12-20T13:02:28;77597.69;;;8.06;96.34
3844;BME280;1937;51.444;6.484;2023-12-20T13:04:56;78077.69;;;8.04;97.33
3844;BME280;1937;51.444;6.484;2023-12-20T13:07:23;78881.06;;;8.01;97.93
3844;BME280;1937;51.444;6.484;2023-12-20T13:09:49;78947.53;;;8.04;98.34
3844;BME280;1937;51.444;6.484;2023-12-20T13:12:17;79301.47;;;8.00;98.71
3844;BME280;1937;51.444;6.484;2023-12-20T13:14:44;79964.03;;;7.88;99.02
3844;BME280;1937;51.444;6.484;2023-12-20T13:17:10;80845.41;;;7.85;100.00
3844;BME280;1937;51.444;6.484;2023-12-20T13:19:37;80671.47;;;7.82;99.34
3844;BME280;1937;51.444;6.484;2023-12-20T13:22:04;81029.06;;;7.52;100.00
3844;BME280;1937;51.444;6.484;2023-12-20T13:24:31;81939.22;;;7.61;100.00